sensor_id;sensor_type;location;lat;lon;timestamp;P1;durP1;ratioP1;P2;durP2;ratioP2
69750;SDS011;57335;52.288;6.056;2023-09-12T00:00:23;63.95;;;24.95;;
69750;SDS011;57335;52.288;6.056;2023-09-12T00:02:50;64.60;;;25.83;;
69750;SDS011;57335;52.288;6.056;2023-09-12T00:05:17;61.97;;;24.65;;
69750;SDS011;57335;52.288;6.056;2023-09-12T00:07:43;61.08;;;24.60;;
69750;SDS011;57335;52.288;6.056;2023-09-12T00:10:09;61.97;;;25.25;;
69750;SDS011;57335;52.288;6.056;2023-09-12T00:12:36;59.22;;;24.95;;
69750;SDS011;57335;52.288;6.056;2023-09-12T00:15:02;68.07;;;26.92;;
69750;SDS011;57335;52.288;6.056;2023-09-12T00:17:29;62.78;;;24.42;;
69750;SDS011;57335;52.288;6.056;2023-09-12T00:19:56;48.90;;;22.00;;
69750;SDS011;57335;52.288;6.056;2023-09-12T00:22:22;66.95;;;23.67;;
69750;SDS011;57335;52.288;6.056;2023-09-12T00:24:48;59.97;;;23.77;;
69750;SDS011;57335;52.288;6.056;2023-09-12T00:27:15;79.38;;;24.63;;
69750;SDS011;57335;52.288;6.056;2023-09-12T00:29:41;245.15;;;26.42;;
69750;SDS011;57335;52.288;6.056;2023-09-12T00:32:08;95.05;;;24.08;;
69750;SDS011;57335;52.288;6.056;2023-09-12T00:34:34;97.38;;;24.65;;
69750;SDS011;57335;52.288;6.056;2023-09-12T00:37:00;126.55;;;25.10;;
69750;SDS011;57335;52.288;6.056;2023-09-12T00:39:27;48.38;;;20.85;;
69750;SDS011;57335;52.288;6.056;2023-09-12T00:41:53;42.17;;;18.90;;
69750;SDS011;57335;52.288;6.056;2023-09-12T00:44:20;40.33;;;18.83;;
69750;SDS011;57335;52.288;6.056;2023-09-12T00:46:46;40.47;;;18.85;;
69750;SDS011;57335;52.288;6.056;2023-09-12T00:49:16;37.45;;;17.60;;
69750;SDS011;57335;52.288;6.056;2023-09-12T00:51:43;35.97;;;17.92;;
69750;SDS011;57335;52.288;6.056;2023-09-12T00:54:10;34.60;;;16.80;;
69750;SDS011;57335;52.288;6.056;2023-09-12T00:56:37;31.05;;;15.68;;
69750;SDS011;57335;52.288;6.056;2023-09-12T00:59:04;30.88;;;14.95;;
69750;SDS011;57335;52.288;6.056;2023-09-12T01:01:31;65.53;;;18.15;;
69750;SDS011;57335;52.288;6.056;2023-09-12T01:03:58;31.00;;;14.88;;
69750;SDS011;57335;52.288;6.056;2023-09-12T01:06:25;27.80;;;14.55;;
69750;SDS011;57335;52.288;6.056;2023-09-12T01:08:55;118.78;;;18.08;;
69750;SDS011;57335;52.288;6.056;2023-09-12T01:11:21;164.68;;;20.00;;
69750;SDS011;57335;52.288;6.056;2023-09-12T01:13:48;78.82;;;16.77;;
69750;SDS011;57335;52.288;6.056;2023-09-12T01:16:15;228.73;;;21.23;;
69750;SDS011;57335;52.288;6.056;2023-09-12T01:18:41;29.27;;;14.20;;
69750;SDS011;57335;52.288;6.056;2023-09-12T01:29:15;53.90;;;17.17;;
69750;SDS011;57335;52.288;6.056;2023-09-12T01:31:42;51.10;;;18.98;;
69750;SDS011;57335;52.288;6.056;2023-09-12T01:34:11;41.17;;;18.42;;
69750;SDS011;57335;52.288;6.056;2023-09-12T01:36:38;34.58;;;17.15;;
69750;SDS011;57335;52.288;6.056;2023-09-12T01:39:04;35.10;;;17.55;;
69750;SDS011;57335;52.288;6.056;2023-09-12T01:41:32;33.10;;;17.10;;
69750;SDS011;57335;52.288;6.056;2023-09-12T01:44:01;104.40;;;21.45;;
69750;SDS011;57335;52.288;6.056;2023-09-12T01:46:29;38.60;;;17.73;;
69750;SDS011;57335;52.288;6.056;2023-09-12T01:48:57;38.83;;;18.58;;
69750;SDS011;57335;52.288;6.056;2023-09-12T01:51:25;70.65;;;19.73;;
69750;SDS011;57335;52.288;6.056;2023-09-12T01:53:53;39.08;;;18.15;;
69750;SDS011;57335;52.288;6.056;2023-09-12T01:56:20;118.38;;;21.08;;
69750;SDS011;57335;52.288;6.056;2023-09-12T01:58:47;59.20;;;20.10;;
69750;SDS011;57335;52.288;6.056;2023-09-12T02:01:14;196.20;;;22.23;;
69750;SDS011;57335;52.288;6.056;2023-09-12T02:03:40;357.70;;;32.00;;
69750;SDS011;57335;52.288;6.056;2023-09-12T02:06:07;161.70;;;24.95;;
69750;SDS011;57335;52.288;6.056;2023-09-12T02:08:33;138.63;;;24.35;;
69750;SDS011;57335;52.288;6.056;2023-09-12T02:11:00;140.77;;;24.35;;
69750;SDS011;57335;52.288;6.056;2023-09-12T02:13:27;87.35;;;20.40;;
69750;SDS011;57335;52.288;6.056;2023-09-12T02:16:02;69.68;;;19.92;;
69750;SDS011;57335;52.288;6.056;2023-09-12T02:18:28;56.35;;;18.42;;
69750;SDS011;57335;52.288;6.056;2023-09-12T02:20:55;31.27;;;14.70;;
69750;SDS011;57335;52.288;6.056;2023-09-12T02:23:21;48.60;;;15.02;;
69750;SDS011;57335;52.288;6.056;2023-09-12T02:25:48;84.22;;;17.33;;
69750;SDS011;57335;52.288;6.056;2023-09-12T02:28:14;375.38;;;28.83;;
69750;SDS011;57335;52.288;6.056;2023-09-12T02:30:40;251.70;;;25.55;;
69750;SDS011;57335;52.288;6.056;2023-09-12T02:33:07;65.10;;;17.60;;
69750;SDS011;57335;52.288;6.056;2023-09-12T02:35:33;37.10;;;15.13;;
69750;SDS011;57335;52.288;6.056;2023-09-12T02:38:00;35.70;;;14.55;;
69750;SDS011;57335;52.288;6.056;2023-09-12T02:40:26;41.42;;;15.20;;
69750;SDS011;57335;52.288;6.056;2023-09-12T02:42:53;38.50;;;15.60;;
69750;SDS011;57335;52.288;6.056;2023-09-12T02:45:19;266.00;;;23.80;;
69750;SDS011;57335;52.288;6.056;2023-09-12T02:47:46;215.63;;;23.27;;
69750;SDS011;57335;52.288;6.056;2023-09-12T02:50:12;104.65;;;19.40;;
69750;SDS011;57335;52.288;6.056;2023-09-12T02:52:38;151.88;;;20.17;;
69750;SDS011;57335;52.288;6.056;2023-09-12T02:55:05;125.95;;;20.23;;
69750;SDS011;57335;52.288;6.056;2023-09-12T02:57:32;284.95;;;25.17;;
69750;SDS011;57335;52.288;6.056;2023-09-12T02:59:58;176.10;;;22.20;;
69750;SDS011;57335;52.288;6.056;2023-09-12T03:02:25;133.43;;;20.75;;
69750;SDS011;57335;52.288;6.056;2023-09-12T03:04:51;333.05;;;27.55;;
69750;SDS011;57335;52.288;6.056;2023-09-12T03:07:17;107.30;;;20.92;;
69750;SDS011;57335;52.288;6.056;2023-09-12T03:09:44;187.52;;;25.20;;
69750;SDS011;57335;52.288;6.056;2023-09-12T03:12:10;121.50;;;20.88;;
69750;SDS011;57335;52.288;6.056;2023-09-12T03:14:37;54.22;;;17.75;;
69750;SDS011;57335;52.288;6.056;2023-09-12T03:17:03;61.75;;;17.38;;
69750;SDS011;57335;52.288;6.056;2023-09-12T03:19:30;207.70;;;22.38;;
69750;SDS011;57335;52.288;6.056;2023-09-12T03:21:57;97.18;;;19.23;;
69750;SDS011;57335;52.288;6.056;2023-09-12T03:24:23;184.95;;;22.35;;
69750;SDS011;57335;52.288;6.056;2023-09-12T03:26:50;48.00;;;16.77;;
69750;SDS011;57335;52.288;6.056;2023-09-12T03:29:17;109.65;;;19.50;;
69750;SDS011;57335;52.288;6.056;2023-09-12T03:31:43;42.88;;;16.92;;
69750;SDS011;57335;52.288;6.056;2023-09-12T03:34:10;39.85;;;15.82;;
69750;SDS011;57335;52.288;6.056;2023-09-12T03:36:36;32.28;;;15.60;;
69750;SDS011;57335;52.288;6.056;2023-09-12T03:39:03;31.08;;;14.73;;
69750;SDS011;57335;52.288;6.056;2023-09-12T03:41:29;305.88;;;23.85;;
69750;SDS011;57335;52.288;6.056;2023-09-12T03:43:56;44.90;;;15.55;;
69750;SDS011;57335;52.288;6.056;2023-09-12T03:46:22;31.67;;;15.35;;
69750;SDS011;57335;52.288;6.056;2023-09-12T03:48:49;80.25;;;16.90;;
69750;SDS011;57335;52.288;6.056;2023-09-12T03:51:15;41.42;;;16.63;;
69750;SDS011;57335;52.288;6.056;2023-09-12T03:53:42;36.63;;;14.68;;
69750;SDS011;57335;52.288;6.056;2023-09-12T03:56:08;40.38;;;14.48;;
69750;SDS011;57335;52.288;6.056;2023-09-12T03:58:35;51.60;;;15.57;;
69750;SDS011;57335;52.288;6.056;2023-09-12T04:01:01;34.58;;;14.98;;
69750;SDS011;57335;52.288;6.056;2023-09-12T04:03:27;37.83;;;14.68;;
69750;SDS011;57335;52.288;6.056;2023-09-12T04:05:54;31.92;;;13.57;;
69750;SDS011;57335;52.288;6.056;2023-09-12T04:08:20;34.15;;;14.10;;
69750;SDS011;57335;52.288;6.056;2023-09-12T04:10:47;40.30;;;15.23;;
69750;SDS011;57335;52.288;6.056;2023-09-12T04:13:13;37.55;;;14.95;;
69750;SDS011;57335;52.288;6.056;2023-09-12T04:15:40;36.17;;;14.25;;
69750;SDS011;57335;52.288;6.056;2023-09-12T04:18:06;38.35;;;15.75;;
69750;SDS011;57335;52.288;6.056;2023-09-12T04:20:33;36.72;;;14.25;;
69750;SDS011;57335;52.288;6.056;2023-09-12T04:23:02;70.60;;;15.52;;
69750;SDS011;57335;52.288;6.056;2023-09-12T04:25:29;31.25;;;14.32;;
69750;SDS011;57335;52.288;6.056;2023-09-12T04:27:56;27.65;;;13.65;;
69750;SDS011;57335;52.288;6.056;2023-09-12T04:30:23;32.78;;;14.40;;
69750;SDS011;57335;52.288;6.056;2023-09-12T04:32:50;34.67;;;14.35;;
69750;SDS011;57335;52.288;6.056;2023-09-12T04:35:16;26.30;;;13.73;;
69750;SDS011;57335;52.288;6.056;2023-09-12T04:37:43;28.65;;;13.68;;
69750;SDS011;57335;52.288;6.056;2023-09-12T04:40:09;36.53;;;14.55;;
69750;SDS011;57335;52.288;6.056;2023-09-12T04:42:36;36.58;;;14.27;;
69750;SDS011;57335;52.288;6.056;2023-09-12T04:45:02;36.00;;;13.95;;
69750;SDS011;57335;52.288;6.056;2023-09-12T04:47:29;29.38;;;13.68;;
69750;SDS011;57335;52.288;6.056;2023-09-12T04:49:56;23.05;;;13.10;;
69750;SDS011;57335;52.288;6.056;2023-09-12T04:52:22;26.40;;;13.68;;
69750;SDS011;57335;52.288;6.056;2023-09-12T04:54:48;29.42;;;13.10;;
69750;SDS011;57335;52.288;6.056;2023-09-12T04:57:15;35.42;;;13.02;;
69750;SDS011;57335;52.288;6.056;2023-09-12T04:59:41;80.05;;;16.05;;
69750;SDS011;57335;52.288;6.056;2023-09-12T05:02:08;22.95;;;12.73;;
69750;SDS011;57335;52.288;6.056;2023-09-12T05:04:34;39.03;;;13.57;;
69750;SDS011;57335;52.288;6.056;2023-09-12T05:17:44;21.60;;;12.00;;
69750;SDS011;57335;52.288;6.056;2023-09-12T05:20:10;28.25;;;13.13;;
69750;SDS011;57335;52.288;6.056;2023-09-12T05:22:37;28.27;;;12.02;;
69750;SDS011;57335;52.288;6.056;2023-09-12T05:25:03;53.95;;;14.20;;
69750;SDS011;57335;52.288;6.056;2023-09-12T05:27:30;57.95;;;13.18;;
69750;SDS011;57335;52.288;6.056;2023-09-12T05:29:56;43.72;;;13.00;;
69750;SDS011;57335;52.288;6.056;2023-09-12T05:32:23;44.30;;;14.50;;
69750;SDS011;57335;52.288;6.056;2023-09-12T05:34:49;40.92;;;14.40;;
69750;SDS011;57335;52.288;6.056;2023-09-12T05:37:19;51.85;;;15.07;;
69750;SDS011;57335;52.288;6.056;2023-09-12T05:39:45;77.95;;;14.73;;
69750;SDS011;57335;52.288;6.056;2023-09-12T05:42:12;107.38;;;16.63;;
69750;SDS011;57335;52.288;6.056;2023-09-12T05:44:39;39.97;;;14.00;;
69750;SDS011;57335;52.288;6.056;2023-09-12T05:47:05;22.67;;;12.15;;
69750;SDS011;57335;52.288;6.056;2023-09-12T05:49:32;50.47;;;13.85;;
69750;SDS011;57335;52.288;6.056;2023-09-12T05:51:58;109.85;;;15.63;;
69750;SDS011;57335;52.288;6.056;2023-09-12T05:54:24;28.08;;;12.40;;
69750;SDS011;57335;52.288;6.056;2023-09-12T05:56:51;33.65;;;13.25;;
69750;SDS011;57335;52.288;6.056;2023-09-12T05:59:18;53.60;;;15.88;;
69750;SDS011;57335;52.288;6.056;2023-09-12T06:01:44;30.95;;;13.68;;
69750;SDS011;57335;52.288;6.056;2023-09-12T06:04:10;39.95;;;14.10;;
69750;SDS011;57335;52.288;6.056;2023-09-12T06:06:37;31.55;;;14.18;;
69750;SDS011;57335;52.288;6.056;2023-09-12T06:09:03;35.65;;;13.68;;
69750;SDS011;57335;52.288;6.056;2023-09-12T06:11:30;33.95;;;14.52;;
69750;SDS011;57335;52.288;6.056;2023-09-12T06:13:56;33.65;;;15.10;;
69750;SDS011;57335;52.288;6.056;2023-09-12T06:16:23;35.50;;;15.82;;
69750;SDS011;57335;52.288;6.056;2023-09-12T06:18:49;36.50;;;15.02;;
69750;SDS011;57335;52.288;6.056;2023-09-12T06:21:16;37.88;;;15.70;;
69750;SDS011;57335;52.288;6.056;2023-09-12T06:23:42;36.33;;;14.98;;
69750;SDS011;57335;52.288;6.056;2023-09-12T06:26:09;32.80;;;14.93;;
69750;SDS011;57335;52.288;6.056;2023-09-12T06:28:37;31.52;;;14.55;;
69750;SDS011;57335;52.288;6.056;2023-09-12T06:31:07;35.10;;;15.07;;
69750;SDS011;57335;52.288;6.056;2023-09-12T06:33:34;33.80;;;16.17;;
69750;SDS011;57335;52.288;6.056;2023-09-12T06:36:00;34.58;;;15.75;;
69750;SDS011;57335;52.288;6.056;2023-09-12T06:38:27;34.20;;;15.43;;
69750;SDS011;57335;52.288;6.056;2023-09-12T06:40:53;36.25;;;16.20;;
69750;SDS011;57335;52.288;6.056;2023-09-12T06:43:19;31.77;;;15.60;;
69750;SDS011;57335;52.288;6.056;2023-09-12T06:45:46;30.13;;;14.80;;
69750;SDS011;57335;52.288;6.056;2023-09-12T06:48:13;35.42;;;16.25;;
69750;SDS011;57335;52.288;6.056;2023-09-12T06:50:40;33.45;;;16.67;;
69750;SDS011;57335;52.288;6.056;2023-09-12T06:53:06;35.00;;;17.33;;
69750;SDS011;57335;52.288;6.056;2023-09-12T06:55:33;33.35;;;16.35;;
69750;SDS011;57335;52.288;6.056;2023-09-12T06:58:00;35.28;;;16.95;;
69750;SDS011;57335;52.288;6.056;2023-09-12T07:00:26;33.00;;;17.17;;
69750;SDS011;57335;52.288;6.056;2023-09-12T07:02:52;37.85;;;18.42;;
69750;SDS011;57335;52.288;6.056;2023-09-12T07:05:19;36.38;;;17.70;;
69750;SDS011;57335;52.288;6.056;2023-09-12T07:07:46;35.97;;;17.80;;
69750;SDS011;57335;52.288;6.056;2023-09-12T07:10:12;35.28;;;16.70;;
69750;SDS011;57335;52.288;6.056;2023-09-12T07:12:50;39.92;;;17.77;;
69750;SDS011;57335;52.288;6.056;2023-09-12T07:15:16;39.63;;;18.58;;
69750;SDS011;57335;52.288;6.056;2023-09-12T07:21:09;37.33;;;17.48;;
69750;SDS011;57335;52.288;6.056;2023-09-12T07:23:35;44.92;;;19.88;;
69750;SDS011;57335;52.288;6.056;2023-09-12T07:26:02;38.88;;;18.70;;
69750;SDS011;57335;52.288;6.056;2023-09-12T07:28:29;43.10;;;19.33;;
69750;SDS011;57335;52.288;6.056;2023-09-12T07:49:26;42.90;;;20.33;;
69750;SDS011;57335;52.288;6.056;2023-09-12T07:51:53;45.35;;;20.20;;
69750;SDS011;57335;52.288;6.056;2023-09-12T07:54:19;39.22;;;19.05;;
69750;SDS011;57335;52.288;6.056;2023-09-12T07:56:46;40.85;;;20.05;;
69750;SDS011;57335;52.288;6.056;2023-09-12T07:59:12;38.97;;;19.52;;
69750;SDS011;57335;52.288;6.056;2023-09-12T08:01:38;40.17;;;20.05;;
69750;SDS011;57335;52.288;6.056;2023-09-12T08:04:05;38.17;;;19.73;;
69750;SDS011;57335;52.288;6.056;2023-09-12T08:06:32;40.33;;;20.27;;
69750;SDS011;57335;52.288;6.056;2023-09-12T08:12:03;38.97;;;19.40;;
69750;SDS011;57335;52.288;6.056;2023-09-12T08:14:29;39.92;;;20.10;;
69750;SDS011;57335;52.288;6.056;2023-09-12T08:16:56;38.78;;;20.00;;
69750;SDS011;57335;52.288;6.056;2023-09-12T08:19:22;43.70;;;20.52;;
69750;SDS011;57335;52.288;6.056;2023-09-12T08:21:48;42.55;;;21.02;;
69750;SDS011;57335;52.288;6.056;2023-09-12T08:24:15;40.72;;;20.30;;
69750;SDS011;57335;52.288;6.056;2023-09-12T08:26:41;39.70;;;21.00;;
69750;SDS011;57335;52.288;6.056;2023-09-12T08:29:08;42.72;;;20.60;;
69750;SDS011;57335;52.288;6.056;2023-09-12T08:31:34;43.13;;;21.33;;
69750;SDS011;57335;52.288;6.056;2023-09-12T08:34:00;44.28;;;21.15;;
69750;SDS011;57335;52.288;6.056;2023-09-12T08:36:27;43.00;;;21.30;;
69750;SDS011;57335;52.288;6.056;2023-09-12T08:38:53;46.05;;;21.88;;
69750;SDS011;57335;52.288;6.056;2023-09-12T08:41:20;47.33;;;22.48;;
69750;SDS011;57335;52.288;6.056;2023-09-12T08:43:46;39.70;;;20.63;;
69750;SDS011;57335;52.288;6.056;2023-09-12T08:46:14;36.55;;;20.00;;
69750;SDS011;57335;52.288;6.056;2023-09-12T08:48:42;38.20;;;19.80;;
69750;SDS011;57335;52.288;6.056;2023-09-12T08:51:10;37.35;;;20.23;;
69750;SDS011;57335;52.288;6.056;2023-09-12T08:53:37;34.85;;;18.42;;
69750;SDS011;57335;52.288;6.056;2023-09-12T08:56:04;34.35;;;19.02;;
69750;SDS011;57335;52.288;6.056;2023-09-12T08:58:32;31.63;;;17.90;;
69750;SDS011;57335;52.288;6.056;2023-09-12T09:00:59;30.23;;;16.67;;
69750;SDS011;57335;52.288;6.056;2023-09-12T09:03:26;29.38;;;16.83;;
69750;SDS011;57335;52.288;6.056;2023-09-12T09:05:55;29.15;;;16.98;;
69750;SDS011;57335;52.288;6.056;2023-09-12T09:08:23;27.92;;;17.00;;
69750;SDS011;57335;52.288;6.056;2023-09-12T09:11:00;27.02;;;16.95;;
69750;SDS011;57335;52.288;6.056;2023-09-12T09:16:39;24.30;;;14.80;;
69750;SDS011;57335;52.288;6.056;2023-09-12T09:21:24;22.63;;;14.82;;
69750;SDS011;57335;52.288;6.056;2023-09-12T09:23:54;23.90;;;15.73;;
69750;SDS011;57335;52.288;6.056;2023-09-12T09:26:21;24.60;;;15.82;;
69750;SDS011;57335;52.288;6.056;2023-09-12T09:29:01;22.67;;;14.85;;
69750;SDS011;57335;52.288;6.056;2023-09-12T09:31:35;23.40;;;15.15;;
69750;SDS011;57335;52.288;6.056;2023-09-12T09:34:02;24.85;;;14.82;;
69750;SDS011;57335;52.288;6.056;2023-09-12T09:36:28;22.20;;;13.38;;
69750;SDS011;57335;52.288;6.056;2023-09-12T09:38:56;20.58;;;13.07;;
69750;SDS011;57335;52.288;6.056;2023-09-12T09:41:23;20.67;;;12.82;;
69750;SDS011;57335;52.288;6.056;2023-09-12T09:43:52;19.17;;;12.88;;
69750;SDS011;57335;52.288;6.056;2023-09-12T09:46:18;22.00;;;13.32;;
69750;SDS011;57335;52.288;6.056;2023-09-12T09:48:48;22.52;;;13.70;;
69750;SDS011;57335;52.288;6.056;2023-09-12T09:51:16;21.33;;;13.55;;
69750;SDS011;57335;52.288;6.056;2023-09-12T09:53:43;21.42;;;13.30;;
69750;SDS011;57335;52.288;6.056;2023-09-12T09:56:10;21.17;;;13.00;;
69750;SDS011;57335;52.288;6.056;2023-09-12T09:58:51;21.45;;;12.90;;
69750;SDS011;57335;52.288;6.056;2023-09-12T10:01:19;22.00;;;13.98;;
69750;SDS011;57335;52.288;6.056;2023-09-12T10:03:48;22.00;;;13.85;;
69750;SDS011;57335;52.288;6.056;2023-09-12T10:06:16;23.77;;;14.18;;
69750;SDS011;57335;52.288;6.056;2023-09-12T10:08:44;23.15;;;13.55;;
69750;SDS011;57335;52.288;6.056;2023-09-12T10:11:14;22.27;;;13.93;;
69750;SDS011;57335;52.288;6.056;2023-09-12T10:14:03;21.50;;;13.32;;
69750;SDS011;57335;52.288;6.056;2023-09-12T10:16:35;18.52;;;11.50;;
69750;SDS011;57335;52.288;6.056;2023-09-12T10:19:11;19.55;;;11.38;;
69750;SDS011;57335;52.288;6.056;2023-09-12T10:21:46;20.17;;;11.68;;
69750;SDS011;57335;52.288;6.056;2023-09-12T10:24:16;21.45;;;12.57;;
69750;SDS011;57335;52.288;6.056;2023-09-12T10:26:43;21.00;;;12.40;;
69750;SDS011;57335;52.288;6.056;2023-09-12T10:29:10;21.23;;;12.88;;
69750;SDS011;57335;52.288;6.056;2023-09-12T10:31:39;17.98;;;11.02;;
69750;SDS011;57335;52.288;6.056;2023-09-12T10:34:05;19.90;;;10.57;;
69750;SDS011;57335;52.288;6.056;2023-09-12T10:36:33;18.40;;;10.73;;
69750;SDS011;57335;52.288;6.056;2023-09-12T10:39:00;18.35;;;11.07;;
69750;SDS011;57335;52.288;6.056;2023-09-12T10:41:27;20.55;;;12.05;;
69750;SDS011;57335;52.288;6.056;2023-09-12T10:43:54;19.77;;;11.10;;
69750;SDS011;57335;52.288;6.056;2023-09-12T10:46:23;18.60;;;11.32;;
69750;SDS011;57335;52.288;6.056;2023-09-12T10:48:50;17.05;;;10.35;;
69750;SDS011;57335;52.288;6.056;2023-09-12T10:51:17;14.93;;;8.35;;
69750;SDS011;57335;52.288;6.056;2023-09-12T10:53:45;13.75;;;7.45;;
69750;SDS011;57335;52.288;6.056;2023-09-12T11:01:27;19.83;;;10.60;;
69750;SDS011;57335;52.288;6.056;2023-09-12T11:03:55;20.52;;;10.80;;
69750;SDS011;57335;52.288;6.056;2023-09-12T11:06:22;20.42;;;11.70;;
69750;SDS011;57335;52.288;6.056;2023-09-12T11:11:39;19.25;;;10.90;;
69750;SDS011;57335;52.288;6.056;2023-09-12T11:14:09;15.23;;;9.13;;
69750;SDS011;57335;52.288;6.056;2023-09-12T11:16:36;18.55;;;9.55;;
69750;SDS011;57335;52.288;6.056;2023-09-12T11:19:15;18.65;;;10.65;;
69750;SDS011;57335;52.288;6.056;2023-09-12T11:21:52;17.50;;;10.02;;
69750;SDS011;57335;52.288;6.056;2023-09-12T11:24:20;21.48;;;11.18;;
69750;SDS011;57335;52.288;6.056;2023-09-12T11:26:57;18.90;;;10.57;;
69750;SDS011;57335;52.288;6.056;2023-09-12T11:29:27;18.75;;;10.57;;
69750;SDS011;57335;52.288;6.056;2023-09-12T11:31:59;19.27;;;10.40;;
69750;SDS011;57335;52.288;6.056;2023-09-12T11:34:26;18.80;;;9.98;;
69750;SDS011;57335;52.288;6.056;2023-09-12T11:36:56;16.75;;;9.70;;
69750;SDS011;57335;52.288;6.056;2023-09-12T11:39:24;16.02;;;9.43;;
69750;SDS011;57335;52.288;6.056;2023-09-12T11:41:51;17.02;;;8.57;;
69750;SDS011;57335;52.288;6.056;2023-09-12T11:44:18;17.00;;;8.85;;
69750;SDS011;57335;52.288;6.056;2023-09-12T11:46:46;18.73;;;9.98;;
69750;SDS011;57335;52.288;6.056;2023-09-12T11:49:14;16.58;;;10.02;;
69750;SDS011;57335;52.288;6.056;2023-09-12T11:51:48;17.08;;;9.93;;
69750;SDS011;57335;52.288;6.056;2023-09-12T11:54:19;18.77;;;9.65;;
69750;SDS011;57335;52.288;6.056;2023-09-12T11:56:47;16.70;;;8.77;;
69750;SDS011;57335;52.288;6.056;2023-09-12T11:59:14;15.77;;;8.95;;
69750;SDS011;57335;52.288;6.056;2023-09-12T12:01:41;17.20;;;9.43;;
69750;SDS011;57335;52.288;6.056;2023-09-12T12:04:07;18.05;;;9.52;;
69750;SDS011;57335;52.288;6.056;2023-09-12T12:06:35;16.83;;;9.65;;
69750;SDS011;57335;52.288;6.056;2023-09-12T12:09:01;20.15;;;10.23;;
69750;SDS011;57335;52.288;6.056;2023-09-12T12:11:28;16.42;;;9.27;;
69750;SDS011;57335;52.288;6.056;2023-09-12T12:13:55;18.85;;;10.70;;
69750;SDS011;57335;52.288;6.056;2023-09-12T12:16:21;19.98;;;11.10;;
69750;SDS011;57335;52.288;6.056;2023-09-12T12:18:51;19.10;;;10.90;;
69750;SDS011;57335;52.288;6.056;2023-09-12T12:21:17;18.30;;;10.95;;
69750;SDS011;57335;52.288;6.056;2023-09-12T12:23:44;19.67;;;10.73;;
69750;SDS011;57335;52.288;6.056;2023-09-12T12:26:11;19.95;;;10.90;;
69750;SDS011;57335;52.288;6.056;2023-09-12T12:28:37;18.25;;;11.13;;
69750;SDS011;57335;52.288;6.056;2023-09-12T12:31:04;18.92;;;11.18;;
69750;SDS011;57335;52.288;6.056;2023-09-12T12:33:31;18.92;;;10.82;;
69750;SDS011;57335;52.288;6.056;2023-09-12T12:36:01;19.85;;;11.10;;
69750;SDS011;57335;52.288;6.056;2023-09-12T12:38:33;20.65;;;10.73;;
69750;SDS011;57335;52.288;6.056;2023-09-12T12:41:01;19.33;;;10.80;;
69750;SDS011;57335;52.288;6.056;2023-09-12T12:43:27;18.50;;;10.32;;
69750;SDS011;57335;52.288;6.056;2023-09-12T12:45:54;20.58;;;11.07;;
69750;SDS011;57335;52.288;6.056;2023-09-12T12:48:31;20.65;;;10.18;;
69750;SDS011;57335;52.288;6.056;2023-09-12T12:50:59;19.77;;;10.50;;
69750;SDS011;57335;52.288;6.056;2023-09-12T12:53:38;18.95;;;10.52;;
69750;SDS011;57335;52.288;6.056;2023-09-12T12:56:11;18.85;;;11.20;;
69750;SDS011;57335;52.288;6.056;2023-09-12T12:58:38;18.20;;;10.32;;
69750;SDS011;57335;52.288;6.056;2023-09-12T13:01:05;16.85;;;9.95;;
69750;SDS011;57335;52.288;6.056;2023-09-12T13:03:31;16.50;;;9.23;;
69750;SDS011;57335;52.288;6.056;2023-09-12T13:05:58;16.23;;;8.60;;
69750;SDS011;57335;52.288;6.056;2023-09-12T13:08:24;15.68;;;8.32;;
69750;SDS011;57335;52.288;6.056;2023-09-12T13:10:50;16.33;;;8.57;;
69750;SDS011;57335;52.288;6.056;2023-09-12T13:13:20;14.68;;;8.65;;
69750;SDS011;57335;52.288;6.056;2023-09-12T13:15:46;15.77;;;8.77;;
69750;SDS011;57335;52.288;6.056;2023-09-12T13:18:12;14.75;;;8.70;;
69750;SDS011;57335;52.288;6.056;2023-09-12T13:20:39;13.70;;;8.35;;
69750;SDS011;57335;52.288;6.056;2023-09-12T13:23:05;16.83;;;9.38;;
69750;SDS011;57335;52.288;6.056;2023-09-12T13:25:31;17.17;;;9.68;;
69750;SDS011;57335;52.288;6.056;2023-09-12T13:27:58;15.13;;;9.23;;
69750;SDS011;57335;52.288;6.056;2023-09-12T13:30:24;15.48;;;8.48;;
69750;SDS011;57335;52.288;6.056;2023-09-12T13:32:51;15.15;;;7.90;;
69750;SDS011;57335;52.288;6.056;2023-09-12T13:35:17;16.83;;;8.98;;
69750;SDS011;57335;52.288;6.056;2023-09-12T13:37:43;13.40;;;7.97;;
69750;SDS011;57335;52.288;6.056;2023-09-12T13:40:10;15.57;;;8.40;;
69750;SDS011;57335;52.288;6.056;2023-09-12T13:42:37;14.13;;;8.00;;
69750;SDS011;57335;52.288;6.056;2023-09-12T13:45:04;14.40;;;7.95;;
69750;SDS011;57335;52.288;6.056;2023-09-12T13:47:31;13.88;;;8.38;;
69750;SDS011;57335;52.288;6.056;2023-09-12T13:49:57;14.73;;;7.68;;
69750;SDS011;57335;52.288;6.056;2023-09-12T13:52:25;16.13;;;8.20;;
69750;SDS011;57335;52.288;6.056;2023-09-12T13:54:52;14.82;;;8.77;;
69750;SDS011;57335;52.288;6.056;2023-09-12T13:57:21;15.35;;;8.95;;
69750;SDS011;57335;52.288;6.056;2023-09-12T13:59:48;16.95;;;9.05;;
69750;SDS011;57335;52.288;6.056;2023-09-12T14:02:14;15.90;;;9.05;;
69750;SDS011;57335;52.288;6.056;2023-09-12T14:04:41;15.35;;;9.45;;
69750;SDS011;57335;52.288;6.056;2023-09-12T14:07:08;15.10;;;8.70;;
